Aviation Digital Data Service (ADDS)

Output produced by METARs form (2256 UTC 27 January 2015)
found at http://aviationweather.gov/adds/metars/
 
KPQI 272201Z 2722/2818 36018G30KT 3/4SM -SN BLSN OVC009 
     FM280200 36015G28KT 3SM -SN BLSN OVC008 
     FM281000 33015G22KT 6SM -SHSN BKN015 AMD LTD TO CLD VIS AND WIND